sensor_id;sensor_type;location;lat;lon;timestamp;P1;durP1;ratioP1;P2;durP2;ratioP2
38399;SDS011;24180;42.676;23.320;2023-12-28T00:00:24;33.78;;;17.00;;
38399;SDS011;24180;42.676;23.320;2023-12-28T00:02:49;27.83;;;14.75;;
38399;SDS011;24180;42.676;23.320;2023-12-28T00:05:15;36.83;;;16.75;;
38399;SDS011;24180;42.676;23.320;2023-12-28T00:07:40;34.03;;;15.57;;
38399;SDS011;24180;42.676;23.320;2023-12-28T00:10:06;30.85;;;14.30;;
38399;SDS011;24180;42.676;23.320;2023-12-28T00:12:32;30.92;;;15.32;;
38399;SDS011;24180;42.676;23.320;2023-12-28T00:14:57;31.83;;;15.60;;
38399;SDS011;24180;42.676;23.320;2023-12-28T00:17:23;30.77;;;14.85;;
38399;SDS011;24180;42.676;23.320;2023-12-28T00:19:48;36.58;;;14.48;;
38399;SDS011;24180;42.676;23.320;2023-12-28T00:22:14;29.15;;;14.68;;
38399;SDS011;24180;42.676;23.320;2023-12-28T00:24:39;30.52;;;15.38;;
38399;SDS011;24180;42.676;23.320;2023-12-28T00:27:04;31.95;;;16.00;;
38399;SDS011;24180;42.676;23.320;2023-12-28T00:29:30;36.22;;;15.27;;
38399;SDS011;24180;42.676;23.320;2023-12-28T00:31:55;27.98;;;13.75;;
38399;SDS011;24180;42.676;23.320;2023-12-28T00:34:21;32.17;;;13.88;;
38399;SDS011;24180;42.676;23.320;2023-12-28T00:36:46;26.50;;;14.60;;
38399;SDS011;24180;42.676;23.320;2023-12-28T00:39:12;29.15;;;13.15;;
38399;SDS011;24180;42.676;23.320;2023-12-28T00:41:37;32.40;;;15.02;;
38399;SDS011;24180;42.676;23.320;2023-12-28T00:44:03;31.60;;;14.50;;
38399;SDS011;24180;42.676;23.320;2023-12-28T00:46:30;26.60;;;13.77;;
38399;SDS011;24180;42.676;23.320;2023-12-28T00:48:55;27.88;;;12.85;;
38399;SDS011;24180;42.676;23.320;2023-12-28T00:51:21;24.98;;;12.65;;
38399;SDS011;24180;42.676;23.320;2023-12-28T00:53:46;24.27;;;12.43;;
38399;SDS011;24180;42.676;23.320;2023-12-28T00:56:12;28.63;;;13.98;;
38399;SDS011;24180;42.676;23.320;2023-12-28T00:58:40;22.85;;;12.98;;
38399;SDS011;24180;42.676;23.320;2023-12-28T01:01:08;27.02;;;13.77;;
38399;SDS011;24180;42.676;23.320;2023-12-28T01:03:34;25.92;;;13.18;;
38399;SDS011;24180;42.676;23.320;2023-12-28T01:05:59;20.98;;;12.30;;
38399;SDS011;24180;42.676;23.320;2023-12-28T01:08:25;23.90;;;12.57;;
38399;SDS011;24180;42.676;23.320;2023-12-28T01:10:50;27.73;;;12.75;;
38399;SDS011;24180;42.676;23.320;2023-12-28T01:13:16;25.45;;;13.65;;
38399;SDS011;24180;42.676;23.320;2023-12-28T01:15:42;27.40;;;14.27;;
38399;SDS011;24180;42.676;23.320;2023-12-28T01:18:07;26.20;;;13.23;;
38399;SDS011;24180;42.676;23.320;2023-12-28T01:20:33;28.92;;;14.05;;
38399;SDS011;24180;42.676;23.320;2023-12-28T01:22:59;26.23;;;13.50;;
38399;SDS011;24180;42.676;23.320;2023-12-28T01:25:25;23.95;;;13.27;;
38399;SDS011;24180;42.676;23.320;2023-12-28T01:27:50;29.20;;;13.77;;
38399;SDS011;24180;42.676;23.320;2023-12-28T01:30:16;24.17;;;12.20;;
38399;SDS011;24180;42.676;23.320;2023-12-28T01:32:41;26.10;;;12.65;;
38399;SDS011;24180;42.676;23.320;2023-12-28T01:35:07;21.63;;;11.27;;
38399;SDS011;24180;42.676;23.320;2023-12-28T01:37:33;23.33;;;13.48;;
38399;SDS011;24180;42.676;23.320;2023-12-28T01:39:59;23.73;;;12.15;;
38399;SDS011;24180;42.676;23.320;2023-12-28T01:42:25;18.80;;;11.52;;
38399;SDS011;24180;42.676;23.320;2023-12-28T01:44:51;24.00;;;12.88;;
38399;SDS011;24180;42.676;23.320;2023-12-28T01:47:16;19.40;;;11.60;;
38399;SDS011;24180;42.676;23.320;2023-12-28T01:49:42;21.52;;;12.30;;
38399;SDS011;24180;42.676;23.320;2023-12-28T01:52:08;24.15;;;11.77;;
38399;SDS011;24180;42.676;23.320;2023-12-28T01:54:34;23.08;;;12.05;;
38399;SDS011;24180;42.676;23.320;2023-12-28T01:57:02;27.40;;;12.13;;
38399;SDS011;24180;42.676;23.320;2023-12-28T01:59:30;23.58;;;11.50;;
38399;SDS011;24180;42.676;23.320;2023-12-28T02:01:56;21.50;;;10.48;;
38399;SDS011;24180;42.676;23.320;2023-12-28T02:04:23;21.23;;;10.57;;
38399;SDS011;24180;42.676;23.320;2023-12-28T02:06:56;21.70;;;10.10;;
38399;SDS011;24180;42.676;23.320;2023-12-28T02:09:23;20.38;;;11.88;;
38399;SDS011;24180;42.676;23.320;2023-12-28T02:11:49;25.15;;;13.25;;
38399;SDS011;24180;42.676;23.320;2023-12-28T02:14:15;19.50;;;11.90;;
38399;SDS011;24180;42.676;23.320;2023-12-28T02:22:12;25.75;;;12.75;;
38399;SDS011;24180;42.676;23.320;2023-12-28T02:27:25;23.85;;;12.43;;
38399;SDS011;24180;42.676;23.320;2023-12-28T02:29:52;31.60;;;14.90;;
38399;SDS011;24180;42.676;23.320;2023-12-28T02:32:19;23.98;;;12.10;;
38399;SDS011;24180;42.676;23.320;2023-12-28T02:34:50;25.48;;;12.45;;
38399;SDS011;24180;42.676;23.320;2023-12-28T02:37:22;29.50;;;13.35;;
38399;SDS011;24180;42.676;23.320;2023-12-28T02:39:49;28.83;;;13.93;;
38399;SDS011;24180;42.676;23.320;2023-12-28T02:42:18;30.42;;;15.07;;
38399;SDS011;24180;42.676;23.320;2023-12-28T02:44:44;26.55;;;13.45;;
38399;SDS011;24180;42.676;23.320;2023-12-28T02:47:09;36.53;;;17.60;;
38399;SDS011;24180;42.676;23.320;2023-12-28T02:49:35;42.35;;;20.52;;
38399;SDS011;24180;42.676;23.320;2023-12-28T02:52:00;34.33;;;18.80;;
38399;SDS011;24180;42.676;23.320;2023-12-28T02:54:26;38.17;;;17.48;;
38399;SDS011;24180;42.676;23.320;2023-12-28T02:56:51;36.78;;;16.10;;
38399;SDS011;24180;42.676;23.320;2023-12-28T02:59:16;31.90;;;16.50;;
38399;SDS011;24180;42.676;23.320;2023-12-28T03:01:42;39.60;;;19.67;;
38399;SDS011;24180;42.676;23.320;2023-12-28T03:04:07;43.30;;;19.63;;
38399;SDS011;24180;42.676;23.320;2023-12-28T03:06:34;40.08;;;20.13;;
38399;SDS011;24180;42.676;23.320;2023-12-28T03:09:00;42.97;;;19.85;;
38399;SDS011;24180;42.676;23.320;2023-12-28T03:11:26;43.72;;;19.48;;
38399;SDS011;24180;42.676;23.320;2023-12-28T03:13:51;37.05;;;18.60;;
38399;SDS011;24180;42.676;23.320;2023-12-28T03:16:17;42.75;;;19.45;;
38399;SDS011;24180;42.676;23.320;2023-12-28T03:18:42;41.53;;;19.73;;
38399;SDS011;24180;42.676;23.320;2023-12-28T03:21:08;38.33;;;19.48;;
38399;SDS011;24180;42.676;23.320;2023-12-28T03:23:33;41.33;;;20.30;;
38399;SDS011;24180;42.676;23.320;2023-12-28T03:26:00;45.95;;;21.80;;
38399;SDS011;24180;42.676;23.320;2023-12-28T03:28:26;50.05;;;23.33;;
38399;SDS011;24180;42.676;23.320;2023-12-28T03:30:51;45.30;;;21.98;;
38399;SDS011;24180;42.676;23.320;2023-12-28T03:33:16;46.58;;;21.75;;
38399;SDS011;24180;42.676;23.320;2023-12-28T03:35:42;40.28;;;21.00;;
38399;SDS011;24180;42.676;23.320;2023-12-28T03:38:07;39.20;;;19.27;;
38399;SDS011;24180;42.676;23.320;2023-12-28T03:40:33;38.88;;;18.88;;
38399;SDS011;24180;42.676;23.320;2023-12-28T03:42:58;47.10;;;21.63;;
38399;SDS011;24180;42.676;23.320;2023-12-28T03:45:24;44.08;;;20.85;;
38399;SDS011;24180;42.676;23.320;2023-12-28T03:47:49;41.90;;;19.10;;
38399;SDS011;24180;42.676;23.320;2023-12-28T03:50:16;37.00;;;17.63;;
38399;SDS011;24180;42.676;23.320;2023-12-28T03:52:41;33.97;;;16.58;;
38399;SDS011;24180;42.676;23.320;2023-12-28T03:55:07;31.55;;;17.05;;
38399;SDS011;24180;42.676;23.320;2023-12-28T03:57:32;34.95;;;17.90;;
38399;SDS011;24180;42.676;23.320;2023-12-28T03:59:58;38.83;;;17.67;;
38399;SDS011;24180;42.676;23.320;2023-12-28T04:02:24;42.10;;;21.95;;
38399;SDS011;24180;42.676;23.320;2023-12-28T04:04:52;40.55;;;19.65;;
38399;SDS011;24180;42.676;23.320;2023-12-28T04:07:18;64.32;;;25.38;;
38399;SDS011;24180;42.676;23.320;2023-12-28T04:09:43;43.92;;;21.08;;
38399;SDS011;24180;42.676;23.320;2023-12-28T04:12:08;42.58;;;18.63;;
38399;SDS011;24180;42.676;23.320;2023-12-28T04:14:34;43.47;;;18.98;;
38399;SDS011;24180;42.676;23.320;2023-12-28T04:17:00;34.33;;;18.33;;
38399;SDS011;24180;42.676;23.320;2023-12-28T04:19:26;36.55;;;18.85;;
38399;SDS011;24180;42.676;23.320;2023-12-28T04:21:51;29.25;;;16.85;;
38399;SDS011;24180;42.676;23.320;2023-12-28T04:24:16;33.58;;;16.65;;
38399;SDS011;24180;42.676;23.320;2023-12-28T04:26:42;33.78;;;16.88;;
38399;SDS011;24180;42.676;23.320;2023-12-28T04:29:07;36.53;;;18.30;;
38399;SDS011;24180;42.676;23.320;2023-12-28T04:31:33;36.72;;;18.98;;
38399;SDS011;24180;42.676;23.320;2023-12-28T04:33:58;37.50;;;20.02;;
38399;SDS011;24180;42.676;23.320;2023-12-28T04:36:24;34.58;;;18.20;;
38399;SDS011;24180;42.676;23.320;2023-12-28T04:38:49;32.65;;;16.88;;
38399;SDS011;24180;42.676;23.320;2023-12-28T04:41:15;32.90;;;15.65;;
38399;SDS011;24180;42.676;23.320;2023-12-28T04:43:40;32.33;;;15.63;;
38399;SDS011;24180;42.676;23.320;2023-12-28T04:46:05;34.28;;;15.40;;
38399;SDS011;24180;42.676;23.320;2023-12-28T04:48:31;27.17;;;14.20;;
38399;SDS011;24180;42.676;23.320;2023-12-28T04:50:57;27.15;;;14.20;;
38399;SDS011;24180;42.676;23.320;2023-12-28T04:53:22;28.58;;;14.13;;
38399;SDS011;24180;42.676;23.320;2023-12-28T04:55:48;33.03;;;14.80;;
38399;SDS011;24180;42.676;23.320;2023-12-28T04:58:13;28.77;;;14.77;;
38399;SDS011;24180;42.676;23.320;2023-12-28T05:00:39;29.27;;;13.98;;
38399;SDS011;24180;42.676;23.320;2023-12-28T05:03:05;30.10;;;14.35;;
38399;SDS011;24180;42.676;23.320;2023-12-28T05:05:33;28.90;;;15.23;;
38399;SDS011;24180;42.676;23.320;2023-12-28T05:07:59;30.17;;;15.93;;
38399;SDS011;24180;42.676;23.320;2023-12-28T05:10:25;29.08;;;15.30;;
38399;SDS011;24180;42.676;23.320;2023-12-28T05:12:50;28.13;;;15.45;;
38399;SDS011;24180;42.676;23.320;2023-12-28T05:15:16;29.73;;;14.55;;
38399;SDS011;24180;42.676;23.320;2023-12-28T05:17:43;27.20;;;13.85;;
38399;SDS011;24180;42.676;23.320;2023-12-28T05:20:08;27.38;;;14.15;;
38399;SDS011;24180;42.676;23.320;2023-12-28T05:22:34;27.00;;;14.07;;
38399;SDS011;24180;42.676;23.320;2023-12-28T05:24:59;33.58;;;15.52;;
38399;SDS011;24180;42.676;23.320;2023-12-28T05:27:25;27.23;;;15.23;;
38399;SDS011;24180;42.676;23.320;2023-12-28T05:29:50;34.05;;;16.05;;
38399;SDS011;24180;42.676;23.320;2023-12-28T05:32:16;27.50;;;14.57;;
38399;SDS011;24180;42.676;23.320;2023-12-28T05:34:41;31.02;;;15.52;;
38399;SDS011;24180;42.676;23.320;2023-12-28T05:37:07;28.20;;;14.80;;
38399;SDS011;24180;42.676;23.320;2023-12-28T05:39:32;30.45;;;16.38;;
38399;SDS011;24180;42.676;23.320;2023-12-28T05:41:58;32.47;;;16.92;;
38399;SDS011;24180;42.676;23.320;2023-12-28T05:44:23;35.50;;;17.88;;
38399;SDS011;24180;42.676;23.320;2023-12-28T05:46:49;39.15;;;17.40;;
38399;SDS011;24180;42.676;23.320;2023-12-28T05:49:14;34.03;;;16.75;;
38399;SDS011;24180;42.676;23.320;2023-12-28T05:51:40;37.75;;;19.35;;
38399;SDS011;24180;42.676;23.320;2023-12-28T05:54:08;35.85;;;18.55;;
38399;SDS011;24180;42.676;23.320;2023-12-28T05:56:34;39.65;;;18.33;;
38399;SDS011;24180;42.676;23.320;2023-12-28T05:59:00;41.50;;;18.75;;
38399;SDS011;24180;42.676;23.320;2023-12-28T06:01:26;37.80;;;18.60;;
38399;SDS011;24180;42.676;23.320;2023-12-28T06:03:52;31.75;;;17.08;;
38399;SDS011;24180;42.676;23.320;2023-12-28T06:06:18;36.53;;;18.30;;
38399;SDS011;24180;42.676;23.320;2023-12-28T06:08:44;38.80;;;18.02;;
38399;SDS011;24180;42.676;23.320;2023-12-28T06:11:09;38.78;;;19.13;;
38399;SDS011;24180;42.676;23.320;2023-12-28T06:13:35;38.88;;;17.42;;
38399;SDS011;24180;42.676;23.320;2023-12-28T06:16:01;36.60;;;16.85;;
38399;SDS011;24180;42.676;23.320;2023-12-28T06:18:26;33.95;;;17.45;;
38399;SDS011;24180;42.676;23.320;2023-12-28T06:20:52;32.67;;;16.88;;
38399;SDS011;24180;42.676;23.320;2023-12-28T06:23:17;38.42;;;15.48;;
38399;SDS011;24180;42.676;23.320;2023-12-28T06:25:42;39.00;;;18.88;;
38399;SDS011;24180;42.676;23.320;2023-12-28T06:28:08;41.58;;;18.65;;
38399;SDS011;24180;42.676;23.320;2023-12-28T06:30:33;36.70;;;17.13;;
38399;SDS011;24180;42.676;23.320;2023-12-28T06:32:59;35.85;;;18.70;;
38399;SDS011;24180;42.676;23.320;2023-12-28T06:35:24;38.72;;;17.92;;
38399;SDS011;24180;42.676;23.320;2023-12-28T06:37:50;36.83;;;16.98;;
38399;SDS011;24180;42.676;23.320;2023-12-28T06:40:15;31.05;;;16.27;;
38399;SDS011;24180;42.676;23.320;2023-12-28T06:42:41;40.70;;;17.40;;
38399;SDS011;24180;42.676;23.320;2023-12-28T06:47:34;35.72;;;15.63;;
38399;SDS011;24180;42.676;23.320;2023-12-28T06:49:59;39.88;;;17.30;;
38399;SDS011;24180;42.676;23.320;2023-12-28T06:52:24;31.73;;;16.63;;
38399;SDS011;24180;42.676;23.320;2023-12-28T06:54:50;33.67;;;17.00;;
38399;SDS011;24180;42.676;23.320;2023-12-28T06:57:16;34.67;;;17.88;;
38399;SDS011;24180;42.676;23.320;2023-12-28T06:59:42;36.97;;;17.60;;
38399;SDS011;24180;42.676;23.320;2023-12-28T07:02:07;32.70;;;17.33;;
38399;SDS011;24180;42.676;23.320;2023-12-28T07:04:32;30.67;;;16.35;;
38399;SDS011;24180;42.676;23.320;2023-12-28T07:06:58;37.88;;;17.70;;
38399;SDS011;24180;42.676;23.320;2023-12-28T07:09:23;38.15;;;16.90;;
38399;SDS011;24180;42.676;23.320;2023-12-28T07:11:49;31.38;;;17.85;;
38399;SDS011;24180;42.676;23.320;2023-12-28T07:14:14;35.75;;;16.58;;
38399;SDS011;24180;42.676;23.320;2023-12-28T07:16:40;31.42;;;17.08;;
38399;SDS011;24180;42.676;23.320;2023-12-28T07:19:05;35.42;;;16.80;;
38399;SDS011;24180;42.676;23.320;2023-12-28T07:21:31;34.63;;;17.60;;
38399;SDS011;24180;42.676;23.320;2023-12-28T07:23:56;34.97;;;15.02;;
38399;SDS011;24180;42.676;23.320;2023-12-28T07:26:22;30.15;;;15.68;;
38399;SDS011;24180;42.676;23.320;2023-12-28T07:28:47;26.90;;;15.20;;
38399;SDS011;24180;42.676;23.320;2023-12-28T07:31:25;31.50;;;16.10;;
38399;SDS011;24180;42.676;23.320;2023-12-28T07:33:52;31.73;;;16.80;;
38399;SDS011;24180;42.676;23.320;2023-12-28T07:36:18;36.85;;;17.85;;
38399;SDS011;24180;42.676;23.320;2023-12-28T07:38:44;37.08;;;18.98;;
38399;SDS011;24180;42.676;23.320;2023-12-28T07:41:09;31.33;;;17.85;;
38399;SDS011;24180;42.676;23.320;2023-12-28T07:43:35;35.47;;;16.92;;
38399;SDS011;24180;42.676;23.320;2023-12-28T07:46:01;37.80;;;16.90;;
38399;SDS011;24180;42.676;23.320;2023-12-28T07:48:27;30.77;;;15.38;;
38399;SDS011;24180;42.676;23.320;2023-12-28T07:50:55;36.67;;;17.63;;
38399;SDS011;24180;42.676;23.320;2023-12-28T07:53:21;24.17;;;14.27;;
38399;SDS011;24180;42.676;23.320;2023-12-28T07:55:47;26.95;;;15.20;;
38399;SDS011;24180;42.676;23.320;2023-12-28T07:58:12;28.73;;;14.82;;
38399;SDS011;24180;42.676;23.320;2023-12-28T08:00:38;42.15;;;16.27;;
38399;SDS011;24180;42.676;23.320;2023-12-28T08:03:03;25.83;;;14.05;;
38399;SDS011;24180;42.676;23.320;2023-12-28T08:05:29;38.97;;;18.35;;
38399;SDS011;24180;42.676;23.320;2023-12-28T08:07:54;35.53;;;15.68;;
38399;SDS011;24180;42.676;23.320;2023-12-28T08:10:20;41.08;;;20.38;;
38399;SDS011;24180;42.676;23.320;2023-12-28T08:12:45;23.67;;;13.40;;
38399;SDS011;24180;42.676;23.320;2023-12-28T08:15:11;22.20;;;13.07;;
38399;SDS011;24180;42.676;23.320;2023-12-28T08:17:36;22.98;;;12.32;;
38399;SDS011;24180;42.676;23.320;2023-12-28T08:20:02;25.88;;;14.40;;
38399;SDS011;24180;42.676;23.320;2023-12-28T08:22:27;26.95;;;14.25;;
38399;SDS011;24180;42.676;23.320;2023-12-28T08:24:53;27.30;;;14.50;;
38399;SDS011;24180;42.676;23.320;2023-12-28T08:27:18;26.25;;;14.65;;
38399;SDS011;24180;42.676;23.320;2023-12-28T08:29:44;22.00;;;13.45;;
38399;SDS011;24180;42.676;23.320;2023-12-28T08:32:10;29.77;;;14.20;;
38399;SDS011;24180;42.676;23.320;2023-12-28T08:34:36;24.23;;;15.20;;
38399;SDS011;24180;42.676;23.320;2023-12-28T08:37:02;28.48;;;14.30;;
38399;SDS011;24180;42.676;23.320;2023-12-28T08:39:28;26.90;;;15.43;;
38399;SDS011;24180;42.676;23.320;2023-12-28T08:41:53;25.55;;;14.65;;
38399;SDS011;24180;42.676;23.320;2023-12-28T08:44:19;27.02;;;15.05;;
38399;SDS011;24180;42.676;23.320;2023-12-28T08:46:44;28.00;;;15.65;;
38399;SDS011;24180;42.676;23.320;2023-12-28T08:49:11;31.48;;;16.98;;
38399;SDS011;24180;42.676;23.320;2023-12-28T08:51:36;32.92;;;17.67;;
38399;SDS011;24180;42.676;23.320;2023-12-28T08:54:02;37.33;;;18.75;;
38399;SDS011;24180;42.676;23.320;2023-12-28T08:56:27;36.00;;;17.33;;
38399;SDS011;24180;42.676;23.320;2023-12-28T08:58:52;29.23;;;17.23;;
38399;SDS011;24180;42.676;23.320;2023-12-28T09:01:19;31.35;;;17.20;;
38399;SDS011;24180;42.676;23.320;2023-12-28T09:03:50;35.03;;;17.20;;
38399;SDS011;24180;42.676;23.320;2023-12-28T09:06:17;34.58;;;18.63;;
38399;SDS011;24180;42.676;23.320;2023-12-28T09:08:43;43.72;;;20.08;;
38399;SDS011;24180;42.676;23.320;2023-12-28T09:11:10;35.75;;;19.08;;
38399;SDS011;24180;42.676;23.320;2023-12-28T09:13:36;38.58;;;20.65;;
38399;SDS011;24180;42.676;23.320;2023-12-28T09:16:03;33.58;;;18.02;;
38399;SDS011;24180;42.676;23.320;2023-12-28T09:18:28;34.88;;;18.20;;
38399;SDS011;24180;42.676;23.320;2023-12-28T09:20:54;34.70;;;18.92;;
38399;SDS011;24180;42.676;23.320;2023-12-28T09:23:20;29.40;;;18.13;;
38399;SDS011;24180;42.676;23.320;2023-12-28T09:25:45;34.80;;;18.02;;
38399;SDS011;24180;42.676;23.320;2023-12-28T09:28:11;30.67;;;17.33;;
38399;SDS011;24180;42.676;23.320;2023-12-28T09:35:29;30.38;;;17.42;;
38399;SDS011;24180;42.676;23.320;2023-12-28T09:37:54;28.17;;;16.65;;
38399;SDS011;24180;42.676;23.320;2023-12-28T09:40:21;30.98;;;19.02;;
38399;SDS011;24180;42.676;23.320;2023-12-28T09:43:30;32.42;;;19.05;;
38399;SDS011;24180;42.676;23.320;2023-12-28T09:45:39;28.50;;;18.48;;
38399;SDS011;24180;42.676;23.320;2023-12-28T09:48:05;40.67;;;19.83;;
38399;SDS011;24180;42.676;23.320;2023-12-28T09:50:32;34.90;;;21.40;;
38399;SDS011;24180;42.676;23.320;2023-12-28T09:52:58;42.65;;;23.17;;
38399;SDS011;24180;42.676;23.320;2023-12-28T09:55:23;36.15;;;23.02;;
38399;SDS011;24180;42.676;23.320;2023-12-28T09:57:50;37.72;;;22.20;;
38399;SDS011;24180;42.676;23.320;2023-12-28T10:00:16;35.78;;;22.17;;
38399;SDS011;24180;42.676;23.320;2023-12-28T10:02:44;36.45;;;24.30;;
38399;SDS011;24180;42.676;23.320;2023-12-28T10:05:16;41.28;;;24.48;;
38399;SDS011;24180;42.676;23.320;2023-12-28T10:07:42;37.67;;;23.50;;
38399;SDS011;24180;42.676;23.320;2023-12-28T10:10:09;45.05;;;24.80;;
38399;SDS011;24180;42.676;23.320;2023-12-28T10:12:35;36.40;;;24.13;;
38399;SDS011;24180;42.676;23.320;2023-12-28T10:15:01;39.20;;;23.30;;
38399;SDS011;24180;42.676;23.320;2023-12-28T10:17:27;41.25;;;24.15;;
38399;SDS011;24180;42.676;23.320;2023-12-28T10:19:52;39.90;;;24.77;;
38399;SDS011;24180;42.676;23.320;2023-12-28T10:22:18;35.47;;;23.77;;
38399;SDS011;24180;42.676;23.320;2023-12-28T10:24:45;40.25;;;25.67;;
38399;SDS011;24180;42.676;23.320;2023-12-28T10:27:11;40.05;;;24.77;;
38399;SDS011;24180;42.676;23.320;2023-12-28T10:29:38;40.08;;;23.85;;
38399;SDS011;24180;42.676;23.320;2023-12-28T10:34:30;40.30;;;24.20;;
38399;SDS011;24180;42.676;23.320;2023-12-28T10:36:56;36.53;;;24.58;;
38399;SDS011;24180;42.676;23.320;2023-12-28T10:39:24;33.38;;;22.63;;
38399;SDS011;24180;42.676;23.320;2023-12-28T10:41:51;41.33;;;23.77;;
38399;SDS011;24180;42.676;23.320;2023-12-28T10:44:20;37.97;;;24.40;;
38399;SDS011;24180;42.676;23.320;2023-12-28T10:46:50;36.72;;;23.08;;
38399;SDS011;24180;42.676;23.320;2023-12-28T10:49:22;33.75;;;23.30;;
38399;SDS011;24180;42.676;23.320;2023-12-28T10:51:51;37.83;;;24.80;;
38399;SDS011;24180;42.676;23.320;2023-12-28T10:56:47;39.30;;;24.02;;
38399;SDS011;24180;42.676;23.320;2023-12-28T10:59:27;39.92;;;24.80;;
38399;SDS011;24180;42.676;23.320;2023-12-28T11:02:14;42.35;;;25.02;;
38399;SDS011;24180;42.676;23.320;2023-12-28T11:07:14;43.03;;;24.33;;
38399;SDS011;24180;42.676;23.320;2023-12-28T11:09:43;39.97;;;24.10;;
38399;SDS011;24180;42.676;23.320;2023-12-28T11:12:10;39.38;;;23.58;;
38399;SDS011;24180;42.676;23.320;2023-12-28T11:14:38;41.30;;;23.85;;
38399;SDS011;24180;42.676;23.320;2023-12-28T11:17:05;35.75;;;22.70;;
38399;SDS011;24180;42.676;23.320;2023-12-28T11:19:31;42.75;;;24.65;;
38399;SDS011;24180;42.676;23.320;2023-12-28T11:22:00;39.10;;;22.40;;
38399;SDS011;24180;42.676;23.320;2023-12-28T11:24:28;33.90;;;21.33;;
38399;SDS011;24180;42.676;23.320;2023-12-28T11:29:21;40.33;;;21.75;;
38399;SDS011;24180;42.676;23.320;2023-12-28T11:31:53;36.40;;;21.17;;
38399;SDS011;24180;42.676;23.320;2023-12-28T11:34:29;38.42;;;22.13;;
38399;SDS011;24180;42.676;23.320;2023-12-28T11:36:56;37.47;;;20.75;;
38399;SDS011;24180;42.676;23.320;2023-12-28T11:42:03;40.38;;;21.05;;
38399;SDS011;24180;42.676;23.320;2023-12-28T11:44:30;40.67;;;21.38;;
38399;SDS011;24180;42.676;23.320;2023-12-28T11:46:56;38.00;;;21.13;;
38399;SDS011;24180;42.676;23.320;2023-12-28T11:49:25;38.75;;;20.30;;
38399;SDS011;24180;42.676;23.320;2023-12-28T11:51:57;37.85;;;19.70;;
38399;SDS011;24180;42.676;23.320;2023-12-28T11:54:24;31.27;;;18.45;;
38399;SDS011;24180;42.676;23.320;2023-12-28T11:56:53;33.35;;;18.67;;
38399;SDS011;24180;42.676;23.320;2023-12-28T11:59:22;32.08;;;18.75;;
38399;SDS011;24180;42.676;23.320;2023-12-28T12:01:50;36.47;;;18.85;;
38399;SDS011;24180;42.676;23.320;2023-12-28T12:04:17;30.27;;;18.52;;
38399;SDS011;24180;42.676;23.320;2023-12-28T12:11:36;27.02;;;15.27;;
38399;SDS011;24180;42.676;23.320;2023-12-28T12:14:03;31.48;;;17.40;;
38399;SDS011;24180;42.676;23.320;2023-12-28T12:16:31;28.63;;;16.65;;
38399;SDS011;24180;42.676;23.320;2023-12-28T12:18:57;30.33;;;16.55;;
38399;SDS011;24180;42.676;23.320;2023-12-28T12:21:23;34.60;;;17.58;;
38399;SDS011;24180;42.676;23.320;2023-12-28T12:23:49;29.20;;;16.23;;
38399;SDS011;24180;42.676;23.320;2023-12-28T12:26:17;32.15;;;16.60;;
38399;SDS011;24180;42.676;23.320;2023-12-28T12:28:43;21.88;;;13.45;;
38399;SDS011;24180;42.676;23.320;2023-12-28T12:31:10;22.25;;;13.15;;
38399;SDS011;24180;42.676;23.320;2023-12-28T12:33:36;18.85;;;12.20;;
38399;SDS011;24180;42.676;23.320;2023-12-28T12:36:03;21.70;;;13.93;;
38399;SDS011;24180;42.676;23.320;2023-12-28T12:38:31;22.45;;;13.40;;
38399;SDS011;24180;42.676;23.320;2023-12-28T12:40:57;23.08;;;13.45;;
38399;SDS011;24180;42.676;23.320;2023-12-28T12:43:23;26.50;;;14.20;;
38399;SDS011;24180;42.676;23.320;2023-12-28T12:45:49;27.13;;;14.13;;
38399;SDS011;24180;42.676;23.320;2023-12-28T12:48:15;31.17;;;14.88;;
38399;SDS011;24180;42.676;23.320;2023-12-28T12:50:40;24.35;;;15.77;;
38399;SDS011;24180;42.676;23.320;2023-12-28T12:53:06;26.67;;;16.45;;
38399;SDS011;24180;42.676;23.320;2023-12-28T12:55:31;28.30;;;17.58;;
38399;SDS011;24180;42.676;23.320;2023-12-28T12:57:57;36.05;;;17.83;;
38399;SDS011;24180;42.676;23.320;2023-12-28T13:00:23;27.38;;;16.73;;
38399;SDS011;24180;42.676;23.320;2023-12-28T13:02:52;31.40;;;17.15;;
38399;SDS011;24180;42.676;23.320;2023-12-28T13:05:21;34.22;;;19.13;;
38399;SDS011;24180;42.676;23.320;2023-12-28T13:07:48;31.92;;;17.13;;
38399;SDS011;24180;42.676;23.320;2023-12-28T13:10:14;31.20;;;18.35;;
38399;SDS011;24180;42.676;23.320;2023-12-28T13:12:39;27.63;;;17.08;;
38399;SDS011;24180;42.676;23.320;2023-12-28T13:15:05;29.33;;;17.23;;
38399;SDS011;24180;42.676;23.320;2023-12-28T13:17:31;31.65;;;17.60;;
38399;SDS011;24180;42.676;23.320;2023-12-28T13:19:57;28.90;;;17.23;;
38399;SDS011;24180;42.676;23.320;2023-12-28T13:22:22;29.17;;;18.05;;
38399;SDS011;24180;42.676;23.320;2023-12-28T13:24:48;29.25;;;16.63;;
38399;SDS011;24180;42.676;23.320;2023-12-28T13:27:13;29.30;;;17.02;;
38399;SDS011;24180;42.676;23.320;2023-12-28T13:29:39;34.83;;;17.25;;
38399;SDS011;24180;42.676;23.320;2023-12-28T13:32:05;28.65;;;16.05;;
38399;SDS011;24180;42.676;23.320;2023-12-28T13:34:31;27.25;;;16.55;;
38399;SDS011;24180;42.676;23.320;2023-12-28T13:36:56;29.60;;;17.17;;
38399;SDS011;24180;42.676;23.320;2023-12-28T13:39:22;32.17;;;17.00;;
38399;SDS011;24180;42.676;23.320;2023-12-28T13:41:47;32.85;;;16.55;;
38399;SDS011;24180;42.676;23.320;2023-12-28T13:44:12;24.63;;;14.82;;
38399;SDS011;24180;42.676;23.320;2023-12-28T13:46:38;27.38;;;15.73;;
38399;SDS011;24180;42.676;23.320;2023-12-28T13:49:04;26.92;;;16.05;;
38399;SDS011;24180;42.676;23.320;2023-12-28T13:51:31;27.90;;;16.77;;
38399;SDS011;24180;42.676;23.320;2023-12-28T13:53:57;33.42;;;17.58;;
38399;SDS011;24180;42.676;23.320;2023-12-28T13:56:22;28.33;;;16.20;;
38399;SDS011;24180;42.676;23.320;2023-12-28T13:58:48;29.38;;;16.65;;
38399;SDS011;24180;42.676;23.320;2023-12-28T14:01:13;33.65;;;17.70;;
38399;SDS011;24180;42.676;23.320;2023-12-28T14:03:39;28.77;;;17.70;;
38399;SDS011;24180;42.676;23.320;2023-12-28T14:06:05;31.85;;;17.33;;
38399;SDS011;24180;42.676;23.320;2023-12-28T14:08:30;35.80;;;17.67;;
38399;SDS011;24180;42.676;23.320;2023-12-28T14:10:56;33.38;;;17.80;;
38399;SDS011;24180;42.676;23.320;2023-12-28T14:13:21;33.72;;;17.60;;
38399;SDS011;24180;42.676;23.320;2023-12-28T14:15:47;31.55;;;17.92;;
38399;SDS011;24180;42.676;23.320;2023-12-28T14:18:13;29.73;;;17.30;;
38399;SDS011;24180;42.676;23.320;2023-12-28T14:20:38;32.75;;;16.88;;
38399;SDS011;24180;42.676;23.320;2023-12-28T14:23:04;34.67;;;17.80;;
38399;SDS011;24180;42.676;23.320;2023-12-28T14:25:30;35.38;;;17.27;;
38399;SDS011;24180;42.676;23.320;2023-12-28T14:27:56;30.50;;;17.30;;
38399;SDS011;24180;42.676;23.320;2023-12-28T14:30:22;38.42;;;18.95;;
38399;SDS011;24180;42.676;23.320;2023-12-28T14:32:47;31.52;;;18.20;;
38399;SDS011;24180;42.676;23.320;2023-12-28T14:35:13;36.20;;;19.33;;